createdAt,value
2018-12-13T00:02:00.217Z,12.03
2018-12-13T00:04:28.161Z,9.75
2018-12-13T00:06:56.166Z,10.68
2018-12-13T00:09:24.030Z,10.90
2018-12-13T00:11:51.932Z,11.43
2018-12-13T00:14:19.953Z,10.82
2018-12-13T00:16:47.783Z,10.28
2018-12-13T00:19:15.699Z,12.55
2018-12-13T00:21:43.608Z,11.93
2018-12-13T00:24:11.521Z,8.63
2018-12-13T00:26:39.351Z,10.15
2018-12-13T00:29:07.428Z,12.85
2018-12-13T00:31:35.347Z,9.85
2018-12-13T00:34:03.513Z,10.70
2018-12-13T00:36:31.400Z,10.98
2018-12-13T00:38:59.319Z,10.25
2018-12-13T00:41:27.200Z,10.82
2018-12-13T00:43:55.169Z,9.85
2018-12-13T00:46:23.026Z,9.55
2018-12-13T00:48:50.951Z,10.00
2018-12-13T00:51:18.788Z,9.30
2018-12-13T00:53:46.688Z,8.65
2018-12-13T00:56:14.613Z,11.40
2018-12-13T00:58:42.483Z,9.55
2018-12-13T01:01:10.306Z,9.55
2018-12-13T01:03:38.209Z,10.50
2018-12-13T01:06:06.688Z,8.75
2018-12-13T01:08:34.603Z,8.53
2018-12-13T01:11:02.451Z,9.63
2018-12-13T01:13:30.405Z,9.95
2018-12-13T01:15:58.414Z,10.40
2018-12-13T01:18:26.312Z,10.55
2018-12-13T01:20:54.171Z,10.30
2018-12-13T01:23:21.883Z,11.15
2018-12-13T01:25:49.787Z,9.70
2018-12-13T01:28:17.630Z,9.60
2018-12-13T01:30:45.568Z,10.13
2018-12-13T01:33:13.422Z,12.75
2018-12-13T01:35:41.302Z,9.18
2018-12-13T01:38:09.139Z,10.68
2018-12-13T01:40:37.036Z,14.07
2018-12-13T01:43:04.986Z,10.43
2018-12-13T01:45:33.308Z,11.00
2018-12-13T01:48:01.449Z,9.93
2018-12-13T01:50:29.397Z,9.10
2018-12-13T01:52:57.301Z,8.33
2018-12-13T01:55:25.244Z,13.62
2018-12-13T01:57:53.131Z,10.48
2018-12-13T02:00:21.031Z,9.95
2018-12-13T02:02:48.895Z,9.63
2018-12-13T02:05:16.709Z,10.15
2018-12-13T02:07:44.576Z,16.35
2018-12-13T02:10:12.400Z,12.95
2018-12-13T02:12:40.396Z,9.28
2018-12-13T02:15:08.477Z,13.30
2018-12-13T02:17:36.456Z,12.98
2018-12-13T02:20:04.715Z,9.78
2018-12-13T02:22:32.703Z,11.83
2018-12-13T02:25:00.827Z,13.10
2018-12-13T02:27:28.852Z,12.55
2018-12-13T02:29:56.776Z,11.75
2018-12-13T02:32:24.637Z,11.40
2018-12-13T02:34:52.685Z,11.40
2018-12-13T02:37:20.493Z,10.72
2018-12-13T02:39:48.399Z,11.40
2018-12-13T02:42:16.427Z,14.65
2018-12-13T02:44:44.303Z,10.30
2018-12-13T02:47:12.133Z,10.18
2018-12-13T02:49:40.182Z,13.53
2018-12-13T02:52:08.104Z,13.68
2018-12-13T02:54:36.010Z,13.60
2018-12-13T02:57:03.951Z,10.58
2018-12-13T02:59:31.822Z,12.23
2018-12-13T03:01:59.757Z,12.07
2018-12-13T03:04:27.711Z,12.15
2018-12-13T03:06:55.678Z,12.00
2018-12-13T03:09:23.669Z,9.70
2018-12-13T03:11:51.472Z,10.60
2018-12-13T03:14:19.371Z,12.73
2018-12-13T03:16:47.200Z,11.95
2018-12-13T03:19:15.136Z,9.83
2018-12-13T03:21:43.039Z,9.90
2018-12-13T03:24:10.870Z,14.30
2018-12-13T03:26:38.747Z,14.23
2018-12-13T03:29:06.551Z,13.15
2018-12-13T03:31:34.326Z,11.12
2018-12-13T03:34:02.209Z,14.93
2018-12-13T03:36:30.257Z,16.23
2018-12-13T03:38:58.209Z,13.55
2018-12-13T03:41:26.245Z,14.80
2018-12-13T03:43:54.136Z,14.05
2018-12-13T03:46:22.003Z,13.22
2018-12-13T03:48:49.928Z,13.13
2018-12-13T03:51:18.182Z,14.15
2018-12-13T03:53:46.000Z,13.15
2018-12-13T03:56:13.851Z,14.05
2018-12-13T03:58:41.629Z,14.20
2018-12-13T04:01:09.430Z,13.20
2018-12-13T04:03:37.317Z,14.47
2018-12-13T04:06:05.126Z,12.30
2018-12-13T04:08:33.157Z,13.78
2018-12-13T04:11:00.970Z,12.15
2018-12-13T04:13:28.888Z,14.55
2018-12-13T04:15:56.724Z,15.75
2018-12-13T04:18:24.656Z,16.67
2018-12-13T04:20:52.570Z,14.47
2018-12-13T04:23:20.543Z,15.85
2018-12-13T04:25:48.342Z,16.35
2018-12-13T04:28:16.256Z,15.48
2018-12-13T04:30:44.083Z,15.70
2018-12-13T04:33:12.101Z,12.98
2018-12-13T04:35:39.915Z,16.12
2018-12-13T04:38:07.802Z,12.65
2018-12-13T04:40:35.611Z,14.93
2018-12-13T04:43:03.647Z,15.08
2018-12-13T04:45:31.467Z,15.00
2018-12-13T04:47:59.187Z,14.95
2018-12-13T04:50:27.020Z,15.48
2018-12-13T04:52:54.783Z,17.10
2018-12-13T04:55:22.547Z,15.90
2018-12-13T04:57:50.289Z,15.38
2018-12-13T05:00:18.199Z,14.85
2018-12-13T05:02:46.038Z,15.10
2018-12-13T05:05:13.971Z,15.30
2018-12-13T05:07:42.083Z,15.65
2018-12-13T05:10:20.612Z,16.65
2018-12-13T05:12:50.055Z,14.28
2018-12-13T05:15:17.888Z,13.55
2018-12-13T05:17:45.738Z,13.55
2018-12-13T05:20:13.668Z,14.05
2018-12-13T05:22:41.544Z,17.23
2018-12-13T05:25:09.440Z,16.48
2018-12-13T05:27:37.367Z,17.10
2018-12-13T05:30:05.435Z,12.95
2018-12-13T05:32:33.379Z,13.32
2018-12-13T05:35:01.470Z,16.25
2018-12-13T05:37:29.992Z,17.10
2018-12-13T05:39:57.822Z,15.40
2018-12-13T05:42:25.762Z,16.75
2018-12-13T05:44:53.600Z,16.20
2018-12-13T05:47:21.609Z,18.80
2018-12-13T05:49:49.432Z,15.93
2018-12-13T05:52:17.260Z,16.82
2018-12-13T05:54:45.101Z,17.05
2018-12-13T05:57:12.995Z,18.02
2018-12-13T05:59:40.832Z,20.80
2018-12-13T06:02:08.728Z,13.83
2018-12-13T06:04:36.428Z,16.82
2018-12-13T06:07:04.440Z,17.80
2018-12-13T06:09:32.184Z,18.27
2018-12-13T06:12:00.025Z,16.27
2018-12-13T06:14:28.356Z,15.10
2018-12-13T06:16:56.244Z,16.52
2018-12-13T06:19:26.782Z,15.32
2018-12-13T06:21:53.892Z,16.57
2018-12-13T06:24:21.765Z,18.17
2018-12-13T06:26:49.605Z,15.05
2018-12-13T06:29:17.523Z,19.60
2018-12-13T06:31:45.362Z,14.07
2018-12-13T06:34:13.240Z,17.85
2018-12-13T06:36:41.056Z,16.65
2018-12-13T06:39:08.843Z,16.80
2018-12-13T06:41:36.663Z,17.70
2018-12-13T06:44:04.846Z,16.80
2018-12-13T06:46:32.696Z,17.32
2018-12-13T06:49:00.848Z,20.95
2018-12-13T06:51:28.660Z,16.70
2018-12-13T06:53:56.696Z,18.60
2018-12-13T06:56:24.647Z,17.62
2018-12-13T06:58:52.463Z,20.90
2018-12-13T07:01:20.473Z,17.48
2018-12-13T07:03:48.297Z,17.52
2018-12-13T07:06:16.240Z,18.85
2018-12-13T07:08:44.091Z,14.50
2018-12-13T07:11:11.968Z,18.60
2018-12-13T07:13:39.898Z,20.17
2018-12-13T07:16:07.743Z,18.70
2018-12-13T07:18:35.636Z,20.70
2018-12-13T07:21:03.597Z,19.27
2018-12-13T07:23:31.440Z,17.23
2018-12-13T07:25:59.215Z,20.85
2018-12-13T07:28:26.951Z,19.15
2018-12-13T07:30:54.951Z,19.62
2018-12-13T07:33:22.753Z,19.52
2018-12-13T07:35:50.672Z,18.55
2018-12-13T07:38:18.619Z,22.10
2018-12-13T07:40:46.631Z,17.40
2018-12-13T07:43:14.520Z,21.85
2018-12-13T07:45:42.441Z,17.62
2018-12-13T07:48:10.377Z,16.40
2018-12-13T07:50:38.247Z,19.30
2018-12-13T07:53:06.083Z,21.97
2018-12-13T07:55:33.964Z,22.55
2018-12-13T07:58:01.873Z,21.12
2018-12-13T08:00:29.777Z,18.77
2018-12-13T08:02:57.592Z,17.52
2018-12-13T08:05:25.393Z,20.45
2018-12-13T08:07:53.296Z,21.15
2018-12-13T08:10:21.538Z,20.52
2018-12-13T08:12:49.470Z,20.68
2018-12-13T08:15:17.312Z,16.67
2018-12-13T08:17:46.579Z,18.23
2018-12-13T08:20:14.777Z,19.07
2018-12-13T08:22:42.621Z,17.05
2018-12-13T08:25:10.445Z,17.67
2018-12-13T08:27:38.280Z,19.55
2018-12-13T08:30:06.561Z,19.25
2018-12-13T08:32:34.838Z,18.70
2018-12-13T08:35:03.585Z,18.60
2018-12-13T08:37:31.611Z,17.92
2018-12-13T08:39:59.528Z,18.35
2018-12-13T08:42:27.251Z,23.50
2018-12-13T08:44:55.276Z,21.68
2018-12-13T08:47:23.159Z,20.62
2018-12-13T08:49:51.068Z,17.50
2018-12-13T08:52:18.921Z,17.82
2018-12-13T08:54:46.836Z,19.75
2018-12-13T08:57:14.685Z,19.10
2018-12-13T08:59:42.669Z,24.43
2018-12-13T09:02:10.516Z,16.37
2018-12-13T09:04:38.505Z,20.88
2018-12-13T09:07:06.370Z,23.40
2018-12-13T09:09:34.260Z,22.67
2018-12-13T09:12:02.166Z,19.52
2018-12-13T09:14:30.032Z,19.27
2018-12-13T09:16:57.935Z,20.25
2018-12-13T09:19:25.811Z,24.00
2018-12-13T09:21:53.744Z,22.02
2018-12-13T09:24:21.795Z,23.42
2018-12-13T09:26:49.703Z,22.13
2018-12-13T09:29:17.560Z,20.17
2018-12-13T09:31:45.459Z,22.13
2018-12-13T09:34:13.317Z,19.30
2018-12-13T09:36:41.224Z,21.30
2018-12-13T09:39:08.966Z,25.05
2018-12-13T09:41:36.776Z,21.45
2018-12-13T09:44:06.719Z,22.17
2018-12-13T09:46:36.154Z,31.60
2018-12-13T09:49:04.092Z,22.15
2018-12-13T09:51:31.910Z,22.20
2018-12-13T09:54:00.011Z,19.42
2018-12-13T09:56:28.148Z,23.10
2018-12-13T09:58:56.064Z,21.70
2018-12-13T10:01:23.984Z,22.37
2018-12-13T10:03:51.887Z,24.50
2018-12-13T10:06:19.753Z,20.85
2018-12-13T10:08:47.828Z,22.80
2018-12-13T10:11:15.672Z,24.37
2018-12-13T10:13:43.687Z,21.10
2018-12-13T10:16:11.539Z,22.25
2018-12-13T10:18:39.680Z,17.48
2018-12-13T10:21:07.859Z,22.32
2018-12-13T10:23:35.835Z,19.60
2018-12-13T10:26:03.996Z,23.73
2018-12-13T10:28:31.983Z,22.95
2018-12-13T10:30:59.933Z,23.32
2018-12-13T10:33:28.366Z,21.95
2018-12-13T10:35:56.266Z,23.67
2018-12-13T10:38:24.125Z,21.60
2018-12-13T10:40:52.024Z,24.23
2018-12-13T10:43:19.950Z,23.75
2018-12-13T10:45:47.861Z,20.23
2018-12-13T10:48:15.822Z,25.15
2018-12-13T10:50:43.757Z,26.85
2018-12-13T10:53:11.740Z,19.67
2018-12-13T10:55:39.701Z,24.37
2018-12-13T10:58:07.657Z,21.73
2018-12-13T11:00:36.630Z,23.15
2018-12-13T11:03:20.543Z,26.45
2018-12-13T11:05:50.048Z,21.02
2018-12-13T11:08:18.057Z,24.65
2018-12-13T11:10:45.963Z,21.80
2018-12-13T11:13:13.826Z,28.30
2018-12-13T11:15:41.964Z,23.67
2018-12-13T11:18:09.931Z,24.30
2018-12-13T11:20:37.813Z,21.37
2018-12-13T11:23:05.764Z,22.37
2018-12-13T11:25:33.635Z,22.05
2018-12-13T11:29:16.187Z,21.02
2018-12-13T11:31:45.721Z,23.80
2018-12-13T11:34:13.547Z,20.88
2018-12-13T11:36:41.480Z,23.12
2018-12-13T11:39:09.365Z,25.32
2018-12-13T11:41:37.289Z,25.35
2018-12-13T11:44:05.352Z,27.05
2018-12-13T11:46:33.268Z,24.15
2018-12-13T11:49:02.135Z,22.22
2018-12-13T11:51:30.159Z,24.00
2018-12-13T11:53:58.505Z,23.50
2018-12-13T11:56:26.385Z,23.07
2018-12-13T11:58:54.279Z,25.77
2018-12-13T12:01:22.111Z,20.75
2018-12-13T12:03:50.053Z,23.00
2018-12-13T12:06:17.890Z,22.87
2018-12-13T12:08:45.882Z,23.40
2018-12-13T12:11:13.900Z,25.95
2018-12-13T12:13:41.804Z,25.75
2018-12-13T12:16:09.647Z,26.35
2018-12-13T12:18:37.571Z,23.55
2018-12-13T12:21:05.488Z,21.50
2018-12-13T12:23:33.496Z,21.93
2018-12-13T12:26:01.508Z,26.75
2018-12-13T12:28:29.949Z,25.05
2018-12-13T12:30:57.930Z,24.15
2018-12-13T12:33:25.760Z,25.85
2018-12-13T12:35:53.672Z,27.52
2018-12-13T12:38:21.587Z,24.25
2018-12-13T12:40:49.551Z,24.23
2018-12-13T12:43:17.475Z,25.62
2018-12-13T12:45:45.410Z,21.85
2018-12-13T12:48:13.269Z,28.73
2018-12-13T12:50:41.191Z,26.62
2018-12-13T12:53:09.055Z,25.02
2018-12-13T12:55:37.016Z,27.30
2018-12-13T12:58:04.892Z,26.52
2018-12-13T13:00:32.728Z,29.35
2018-12-13T13:03:01.003Z,26.42
2018-12-13T13:05:29.093Z,27.25
2018-12-13T13:07:57.839Z,22.75
2018-12-13T13:10:26.001Z,23.98
2018-12-13T13:12:53.909Z,24.05
2018-12-13T13:15:21.668Z,25.88
2018-12-13T13:17:49.698Z,28.27
2018-12-13T13:20:17.621Z,27.55
2018-12-13T13:22:45.571Z,25.32
2018-12-13T13:25:13.435Z,28.92
2018-12-13T13:27:41.487Z,24.37
2018-12-13T13:30:09.375Z,23.55
2018-12-13T13:32:37.478Z,26.35
2018-12-13T13:35:05.331Z,25.88
2018-12-13T13:37:33.240Z,27.98
2018-12-13T13:40:01.565Z,26.15
2018-12-13T13:42:30.688Z,25.35
2018-12-13T13:45:01.420Z,30.25
2018-12-13T13:47:29.963Z,24.70
2018-12-13T13:49:57.875Z,27.60
2018-12-13T13:52:25.949Z,23.87
2018-12-13T13:54:53.807Z,26.48
2018-12-13T13:57:21.894Z,23.07
2018-12-13T13:59:49.730Z,23.70
2018-12-13T14:02:17.733Z,26.15
2018-12-13T14:04:45.701Z,25.10
2018-12-13T14:07:13.625Z,27.75
2018-12-13T14:09:41.552Z,24.02
2018-12-13T14:12:09.311Z,29.00
2018-12-13T14:14:37.247Z,21.77
2018-12-13T14:17:05.234Z,25.45
2018-12-13T14:19:33.156Z,23.42
2018-12-13T14:22:01.008Z,24.92
2018-12-13T14:24:28.974Z,22.37
2018-12-13T14:26:56.928Z,22.22
2018-12-13T14:29:24.868Z,24.05
2018-12-13T14:31:52.748Z,25.80
2018-12-13T14:34:20.706Z,22.00
2018-12-13T14:36:48.727Z,21.77
2018-12-13T14:39:16.665Z,29.27
2018-12-13T14:41:44.618Z,20.72
2018-12-13T14:44:12.592Z,27.62
2018-12-13T14:46:40.513Z,26.87
2018-12-13T14:49:08.352Z,23.60
2018-12-13T14:51:36.282Z,23.83
2018-12-13T14:54:04.146Z,23.85
2018-12-13T14:56:32.033Z,22.60
2018-12-13T14:58:59.812Z,19.57
2018-12-13T15:01:27.799Z,22.20
2018-12-13T15:03:55.769Z,25.57
2018-12-13T15:06:23.824Z,23.55
2018-12-13T15:08:51.860Z,25.57
2018-12-13T15:11:19.706Z,25.02
2018-12-13T15:13:47.716Z,22.13
2018-12-13T15:16:15.603Z,23.45
2018-12-13T15:18:43.460Z,21.20
2018-12-13T15:21:11.343Z,24.37
2018-12-13T15:23:39.271Z,21.00
2018-12-13T15:26:07.107Z,20.17
2018-12-13T15:28:35.163Z,22.48
2018-12-13T15:31:03.197Z,23.75
2018-12-13T15:33:31.156Z,23.02
2018-12-13T15:35:59.012Z,22.75
2018-12-13T15:38:27.083Z,22.60
2018-12-13T15:40:54.964Z,25.62
2018-12-13T15:43:23.049Z,22.82
2018-12-13T15:45:50.880Z,22.70
2018-12-13T15:48:18.766Z,20.23
2018-12-13T15:50:46.686Z,21.97
2018-12-13T15:53:14.708Z,23.73
2018-12-13T15:55:42.651Z,23.52
2018-12-13T15:58:10.410Z,21.77
2018-12-13T16:00:38.373Z,24.10
2018-12-13T16:03:06.329Z,23.12
2018-12-13T16:05:34.471Z,27.15
2018-12-13T16:08:02.622Z,25.88
2018-12-13T16:10:30.547Z,22.58
2018-12-13T16:12:58.507Z,24.72
2018-12-13T16:15:26.437Z,27.98
2018-12-13T16:17:54.792Z,24.23
2018-12-13T16:20:22.890Z,20.95
2018-12-13T16:22:50.794Z,24.47
2018-12-13T16:25:18.892Z,20.88
2018-12-13T16:27:46.940Z,23.50
2018-12-13T16:30:15.333Z,21.12
2018-12-13T16:32:43.359Z,30.37
2018-12-13T16:35:11.464Z,24.30
2018-12-13T16:37:39.596Z,27.70
2018-12-13T16:40:10.274Z,21.48
2018-12-13T16:42:37.450Z,21.12
2018-12-13T16:45:05.697Z,23.22
2018-12-13T16:47:33.779Z,23.92
2018-12-13T16:50:01.515Z,20.48
2018-12-13T16:52:29.657Z,26.27
2018-12-13T16:54:57.496Z,19.90
2018-12-13T16:57:25.465Z,21.07
2018-12-13T16:59:53.340Z,22.77
2018-12-13T17:02:21.227Z,25.20
2018-12-13T17:04:49.151Z,20.48
2018-12-13T17:07:17.047Z,19.75
2018-12-13T17:09:44.967Z,25.95
2018-12-13T17:12:12.865Z,23.40
2018-12-13T17:14:40.847Z,24.77
2018-12-13T17:17:08.799Z,22.73
2018-12-13T17:19:36.724Z,23.18
2018-12-13T17:22:04.600Z,23.77
2018-12-13T17:24:32.706Z,27.05
2018-12-13T17:27:00.781Z,23.12
2018-12-13T17:29:28.752Z,26.00
2018-12-13T17:31:56.694Z,21.80
2018-12-13T17:34:24.782Z,22.80
2018-12-13T17:36:52.807Z,23.80
2018-12-13T17:39:20.560Z,23.65
2018-12-13T17:41:48.436Z,24.05
2018-12-13T17:44:16.318Z,24.32
2018-12-13T17:46:44.300Z,21.62
2018-12-13T17:49:12.199Z,20.82
2018-12-13T17:51:40.141Z,19.57
2018-12-13T17:54:08.048Z,21.87
2018-12-13T17:56:35.970Z,24.20
2018-12-13T17:59:03.896Z,20.80
2018-12-13T18:01:31.945Z,22.07
2018-12-13T18:03:59.844Z,25.50
2018-12-13T18:06:27.799Z,21.93
2018-12-13T18:08:55.698Z,22.45
2018-12-13T18:11:24.299Z,21.40
2018-12-13T18:13:52.314Z,23.30
2018-12-13T18:16:20.243Z,18.80
2018-12-13T18:18:48.302Z,21.27
2018-12-13T18:21:16.221Z,20.90
2018-12-13T18:23:44.237Z,23.80
2018-12-13T18:26:12.180Z,21.25
2018-12-13T18:28:40.156Z,23.92
2018-12-13T18:31:08.066Z,21.73
2018-12-13T18:33:36.091Z,23.52
2018-12-13T18:36:03.978Z,26.12
2018-12-13T18:38:32.444Z,23.62
2018-12-13T18:41:00.390Z,24.00
2018-12-13T18:43:28.452Z,19.35
2018-12-13T18:45:56.384Z,20.17
2018-12-13T18:48:24.381Z,22.55
2018-12-13T18:50:52.486Z,25.30
2018-12-13T18:53:20.513Z,21.80
2018-12-13T18:55:48.449Z,19.82
2018-12-13T18:58:16.450Z,22.70
2018-12-13T19:00:44.368Z,19.77
2018-12-13T19:03:12.336Z,22.50
2018-12-13T19:05:40.300Z,24.32
2018-12-13T19:08:08.240Z,22.22
2018-12-13T19:10:41.768Z,22.30
2018-12-13T19:13:06.162Z,19.20
2018-12-13T19:15:34.220Z,25.35
2018-12-13T19:18:02.287Z,21.90
2018-12-13T19:20:30.281Z,21.10
2018-12-13T19:22:58.302Z,23.18
2018-12-13T19:25:27.738Z,20.17
2018-12-13T19:27:56.119Z,24.57
2018-12-13T19:30:24.098Z,23.65
2018-12-13T19:32:52.066Z,24.52
2018-12-13T19:35:20.112Z,23.92
2018-12-13T19:37:48.049Z,21.95
2018-12-13T19:40:16.100Z,21.90
2018-12-13T19:42:44.176Z,19.42
2018-12-13T19:45:12.288Z,18.57
2018-12-13T19:47:40.275Z,23.02
2018-12-13T19:50:09.645Z,24.52
2018-12-13T19:52:37.812Z,27.15
2018-12-13T19:55:06.502Z,22.30
2018-12-13T19:57:34.491Z,22.60
2018-12-13T20:00:02.750Z,21.68
2018-12-13T20:02:32.308Z,20.25
2018-12-13T20:05:00.174Z,23.83
2018-12-13T20:07:28.520Z,19.73
2018-12-13T20:09:56.417Z,21.52
2018-12-13T20:12:24.496Z,21.23
2018-12-13T20:14:52.454Z,19.32
2018-12-13T20:17:20.481Z,20.40
2018-12-13T20:19:48.451Z,21.27
2018-12-13T20:22:16.457Z,24.70
2018-12-13T20:24:44.504Z,22.50
2018-12-13T20:27:12.485Z,18.67
2018-12-13T20:29:40.802Z,25.00
2018-12-13T20:32:08.912Z,20.70
2018-12-13T20:34:36.993Z,24.20
2018-12-13T20:37:04.903Z,21.62
2018-12-13T20:39:32.863Z,20.57
2018-12-13T20:42:00.754Z,24.27
2018-12-13T20:44:28.809Z,22.35
2018-12-13T20:46:56.797Z,24.67
2018-12-13T20:49:24.764Z,21.73
2018-12-13T20:51:52.883Z,22.40
2018-12-13T20:54:20.867Z,24.47
2018-12-13T20:56:48.740Z,20.90
2018-12-13T20:59:16.808Z,22.45
2018-12-13T21:01:44.739Z,19.90
2018-12-13T21:04:12.627Z,21.85
2018-12-13T21:06:40.661Z,21.85
2018-12-13T21:09:08.737Z,22.45
2018-12-13T21:11:36.709Z,18.50
2018-12-13T21:14:04.600Z,21.27
2018-12-13T21:16:32.539Z,21.50
2018-12-13T21:19:00.320Z,22.10
2018-12-13T21:21:28.732Z,22.20
2018-12-13T21:23:56.657Z,21.45
2018-12-13T21:26:24.701Z,22.55
2018-12-13T21:28:52.730Z,23.92
2018-12-13T21:31:20.729Z,25.55
2018-12-13T21:33:48.581Z,20.10
2018-12-13T21:36:16.466Z,27.50
2018-12-13T21:38:44.421Z,26.27
2018-12-13T21:41:13.733Z,21.90
2018-12-13T21:43:41.960Z,20.10
2018-12-13T21:46:09.919Z,23.22
2018-12-13T21:48:37.889Z,21.33
2018-12-13T21:51:05.877Z,21.87
2018-12-13T21:53:33.818Z,23.25
2018-12-13T21:56:01.905Z,20.45
2018-12-13T21:58:29.836Z,23.05
2018-12-13T22:00:57.715Z,23.60
2018-12-13T22:03:25.672Z,21.50
2018-12-13T22:05:53.544Z,25.82
2018-12-13T22:08:21.489Z,22.15
2018-12-13T22:10:49.323Z,21.65
2018-12-13T22:13:17.275Z,24.70
2018-12-13T22:15:45.210Z,22.48
2018-12-13T22:18:13.156Z,25.27
2018-12-13T22:20:41.027Z,22.60
2018-12-13T22:23:08.984Z,24.30
2018-12-13T22:25:36.858Z,25.20
2018-12-13T22:28:04.801Z,25.08
2018-12-13T22:30:32.657Z,25.68
2018-12-13T22:33:00.879Z,23.47
2018-12-13T22:35:29.054Z,23.15
2018-12-13T22:37:56.907Z,22.65
2018-12-13T22:40:24.810Z,21.07
2018-12-13T22:42:53.127Z,25.57
2018-12-13T22:45:21.041Z,24.60
2018-12-13T22:47:48.985Z,25.02
2018-12-13T22:50:16.931Z,23.70
2018-12-13T22:52:45.028Z,25.35
2018-12-13T22:55:12.993Z,24.15
2018-12-13T22:57:40.823Z,22.70
2018-12-13T23:00:10.211Z,24.50
2018-12-13T23:02:38.704Z,23.20
2018-12-13T23:05:06.779Z,22.40
2018-12-13T23:07:34.793Z,24.72
2018-12-13T23:10:03.117Z,27.90
2018-12-13T23:12:31.264Z,25.60
2018-12-13T23:14:59.162Z,25.30
2018-12-13T23:17:27.287Z,26.12
2018-12-13T23:19:55.142Z,25.48
2018-12-13T23:22:23.051Z,34.23
2018-12-13T23:24:50.994Z,21.87
2018-12-13T23:27:18.872Z,24.95
2018-12-13T23:29:46.785Z,24.40
2018-12-13T23:32:14.713Z,23.10
2018-12-13T23:34:42.640Z,24.87
2018-12-13T23:37:10.608Z,26.20
2018-12-13T23:39:38.400Z,27.45
2018-12-13T23:42:06.307Z,25.10
2018-12-13T23:44:34.224Z,24.67
2018-12-13T23:47:02.111Z,20.88
2018-12-13T23:49:29.961Z,28.05
2018-12-13T23:51:58.021Z,27.65
2018-12-13T23:54:25.908Z,25.57
2018-12-13T23:56:53.743Z,28.10
2018-12-13T23:59:21.686Z,27.98
